Terminal Aerodrome Forecast
Issued by NWS

Home | Current Version | Previous Version | Text Only | Print | Product List | Glossary On
Versions: 1 2 3 4 5 6 7 8 9 10 11 12 13 14
828
FTUS46 KPDT 022339
TAFRDM
TAF
KRDM 022339Z 0300/0324 16006KT P6SM OVC070
     FM030400 17006KT P6SM OVC045
     FM030800 17004KT P6SM SCT020 OVC120
     FM032100 29008KT P6SM FEW040 BKN100=

USA.gov is the U.S. government's official web portal to all federal, state and local government web resources and services.